sensor_id;sensor_type;location;lat;lon;timestamp;temperature;humidity
7388;DHT22;3735;50.136;11.062;2023-03-14T00:00:13;9.00;99.90
7388;DHT22;3735;50.136;11.062;2023-03-14T00:02:40;9.20;99.90
7388;DHT22;3735;50.136;11.062;2023-03-14T00:05:07;9.30;99.90
7388;DHT22;3735;50.136;11.062;2023-03-14T00:07:38;9.30;99.90
7388;DHT22;3735;50.136;11.062;2023-03-14T00:10:08;9.20;99.90
7388;DHT22;3735;50.136;11.062;2023-03-14T00:12:36;9.20;99.90
7388;DHT22;3735;50.136;11.062;2023-03-14T00:15:02;9.20;99.90
7388;DHT22;3735;50.136;11.062;2023-03-14T00:17:29;9.20;99.90
7388;DHT22;3735;50.136;11.062;2023-03-14T00:19:56;9.20;99.90
7388;DHT22;3735;50.136;11.062;2023-03-14T00:22:22;9.20;99.90
7388;DHT22;3735;50.136;11.062;2023-03-14T00:24:48;9.30;99.90
7388;DHT22;3735;50.136;11.062;2023-03-14T00:27:14;9.30;99.90
7388;DHT22;3735;50.136;11.062;2023-03-14T00:29:39;9.40;99.90
7388;DHT22;3735;50.136;11.062;2023-03-14T00:32:07;9.50;99.90
7388;DHT22;3735;50.136;11.062;2023-03-14T00:34:33;9.50;99.90
7388;DHT22;3735;50.136;11.062;2023-03-14T00:36:59;9.50;99.90
7388;DHT22;3735;50.136;11.062;2023-03-14T00:39:24;9.50;99.90
7388;DHT22;3735;50.136;11.062;2023-03-14T00:41:50;9.50;99.90
7388;DHT22;3735;50.136;11.062;2023-03-14T00:44:16;9.50;99.90
7388;DHT22;3735;50.136;11.062;2023-03-14T00:46:41;9.60;99.90
7388;DHT22;3735;50.136;11.062;2023-03-14T00:49:07;9.60;99.90
7388;DHT22;3735;50.136;11.062;2023-03-14T00:51:33;9.50;99.90
7388;DHT22;3735;50.136;11.062;2023-03-14T00:53:59;9.60;99.90
7388;DHT22;3735;50.136;11.062;2023-03-14T00:56:26;9.60;99.90
7388;DHT22;3735;50.136;11.062;2023-03-14T00:58:55;9.60;99.90
7388;DHT22;3735;50.136;11.062;2023-03-14T01:01:21;9.60;99.90
7388;DHT22;3735;50.136;11.062;2023-03-14T01:03:51;9.70;99.90
7388;DHT22;3735;50.136;11.062;2023-03-14T01:06:20;9.60;99.90
7388;DHT22;3735;50.136;11.062;2023-03-14T01:08:48;9.60;99.90
7388;DHT22;3735;50.136;11.062;2023-03-14T01:13:49;9.60;99.90
7388;DHT22;3735;50.136;11.062;2023-03-14T01:16:16;9.60;99.90
7388;DHT22;3735;50.136;11.062;2023-03-14T01:18:43;9.60;99.90
7388;DHT22;3735;50.136;11.062;2023-03-14T01:21:16;9.60;99.90
7388;DHT22;3735;50.136;11.062;2023-03-14T01:23:46;9.60;99.90
7388;DHT22;3735;50.136;11.062;2023-03-14T01:26:15;9.70;99.90
7388;DHT22;3735;50.136;11.062;2023-03-14T01:28:44;9.60;99.90
7388;DHT22;3735;50.136;11.062;2023-03-14T01:31:11;9.70;99.90
7388;DHT22;3735;50.136;11.062;2023-03-14T01:33:38;9.70;99.90
7388;DHT22;3735;50.136;11.062;2023-03-14T01:36:05;9.70;99.90
7388;DHT22;3735;50.136;11.062;2023-03-14T01:38:33;9.70;99.90
7388;DHT22;3735;50.136;11.062;2023-03-14T01:41:00;9.80;99.90
7388;DHT22;3735;50.136;11.062;2023-03-14T01:43:28;9.90;99.90
7388;DHT22;3735;50.136;11.062;2023-03-14T01:48:37;10.00;99.90
7388;DHT22;3735;50.136;11.062;2023-03-14T01:51:12;10.00;99.90
7388;DHT22;3735;50.136;11.062;2023-03-14T01:53:42;10.00;99.90
7388;DHT22;3735;50.136;11.062;2023-03-14T01:56:11;10.00;99.90
7388;DHT22;3735;50.136;11.062;2023-03-14T01:58:41;10.10;99.90
7388;DHT22;3735;50.136;11.062;2023-03-14T02:01:16;10.00;99.90
7388;DHT22;3735;50.136;11.062;2023-03-14T02:03:53;9.90;99.90
7388;DHT22;3735;50.136;11.062;2023-03-14T02:06:24;9.90;99.90
7388;DHT22;3735;50.136;11.062;2023-03-14T02:08:54;9.90;99.90
7388;DHT22;3735;50.136;11.062;2023-03-14T02:11:21;9.90;99.90
7388;DHT22;3735;50.136;11.062;2023-03-14T02:13:50;10.00;99.90
7388;DHT22;3735;50.136;11.062;2023-03-14T02:16:16;10.00;99.90
7388;DHT22;3735;50.136;11.062;2023-03-14T02:18:41;10.10;99.90
7388;DHT22;3735;50.136;11.062;2023-03-14T02:27:24;10.10;99.90
7388;DHT22;3735;50.136;11.062;2023-03-14T02:29:25;10.10;99.90
7388;DHT22;3735;50.136;11.062;2023-03-14T02:31:51;10.10;99.90
7388;DHT22;3735;50.136;11.062;2023-03-14T02:34:17;10.10;99.90
7388;DHT22;3735;50.136;11.062;2023-03-14T02:36:43;10.20;99.90
7388;DHT22;3735;50.136;11.062;2023-03-14T02:39:15;10.20;99.90
7388;DHT22;3735;50.136;11.062;2023-03-14T02:41:51;10.20;99.90
7388;DHT22;3735;50.136;11.062;2023-03-14T02:44:17;10.20;99.90
7388;DHT22;3735;50.136;11.062;2023-03-14T02:46:43;10.20;99.90
7388;DHT22;3735;50.136;11.062;2023-03-14T02:49:11;10.20;99.90
7388;DHT22;3735;50.136;11.062;2023-03-14T02:51:40;10.20;99.90
7388;DHT22;3735;50.136;11.062;2023-03-14T02:54:08;10.20;99.90
7388;DHT22;3735;50.136;11.062;2023-03-14T02:56:34;10.10;99.90
7388;DHT22;3735;50.136;11.062;2023-03-14T02:59:03;10.10;99.90
7388;DHT22;3735;50.136;11.062;2023-03-14T03:01:29;10.00;99.90
7388;DHT22;3735;50.136;11.062;2023-03-14T03:03:55;10.00;99.90
7388;DHT22;3735;50.136;11.062;2023-03-14T03:06:21;9.90;99.90
7388;DHT22;3735;50.136;11.062;2023-03-14T03:08:47;9.80;99.90
7388;DHT22;3735;50.136;11.062;2023-03-14T03:11:13;9.80;99.90
7388;DHT22;3735;50.136;11.062;2023-03-14T03:13:38;9.80;99.90
7388;DHT22;3735;50.136;11.062;2023-03-14T03:16:04;9.80;99.90
7388;DHT22;3735;50.136;11.062;2023-03-14T03:18:30;9.70;99.90
7388;DHT22;3735;50.136;11.062;2023-03-14T03:21:00;9.80;99.90
7388;DHT22;3735;50.136;11.062;2023-03-14T03:23:26;9.70;99.90
7388;DHT22;3735;50.136;11.062;2023-03-14T03:25:52;9.70;99.90
7388;DHT22;3735;50.136;11.062;2023-03-14T03:28:19;9.60;99.90
7388;DHT22;3735;50.136;11.062;2023-03-14T03:30:45;9.60;99.90
7388;DHT22;3735;50.136;11.062;2023-03-14T03:33:12;9.60;99.90
7388;DHT22;3735;50.136;11.062;2023-03-14T03:35:46;9.60;99.90
7388;DHT22;3735;50.136;11.062;2023-03-14T03:38:14;9.60;99.90
7388;DHT22;3735;50.136;11.062;2023-03-14T03:40:40;9.60;99.90
7388;DHT22;3735;50.136;11.062;2023-03-14T03:43:06;9.60;99.90
7388;DHT22;3735;50.136;11.062;2023-03-14T03:45:32;9.60;99.90
7388;DHT22;3735;50.136;11.062;2023-03-14T03:47:57;9.60;99.90
7388;DHT22;3735;50.136;11.062;2023-03-14T03:50:23;9.60;99.90
7388;DHT22;3735;50.136;11.062;2023-03-14T03:52:49;9.60;99.90
7388;DHT22;3735;50.136;11.062;2023-03-14T03:55:15;9.60;99.90
7388;DHT22;3735;50.136;11.062;2023-03-14T03:57:41;9.60;99.90
7388;DHT22;3735;50.136;11.062;2023-03-14T04:00:07;9.60;99.90
7388;DHT22;3735;50.136;11.062;2023-03-14T04:02:36;9.60;99.90
7388;DHT22;3735;50.136;11.062;2023-03-14T04:05:02;9.60;99.90
7388;DHT22;3735;50.136;11.062;2023-03-14T04:07:27;9.60;99.90
7388;DHT22;3735;50.136;11.062;2023-03-14T04:09:53;9.70;99.90
7388;DHT22;3735;50.136;11.062;2023-03-14T04:12:19;9.70;99.90
7388;DHT22;3735;50.136;11.062;2023-03-14T04:14:45;9.80;99.90
7388;DHT22;3735;50.136;11.062;2023-03-14T04:17:11;9.80;99.90
7388;DHT22;3735;50.136;11.062;2023-03-14T04:19:37;9.90;99.90
7388;DHT22;3735;50.136;11.062;2023-03-14T04:22:03;9.80;99.90
7388;DHT22;3735;50.136;11.062;2023-03-14T04:24:28;9.80;99.90
7388;DHT22;3735;50.136;11.062;2023-03-14T04:26:54;9.70;99.90
7388;DHT22;3735;50.136;11.062;2023-03-14T04:29:20;9.60;99.90
7388;DHT22;3735;50.136;11.062;2023-03-14T04:31:46;9.60;99.90
7388;DHT22;3735;50.136;11.062;2023-03-14T04:34:11;9.60;99.90
7388;DHT22;3735;50.136;11.062;2023-03-14T04:36:37;9.50;99.90
7388;DHT22;3735;50.136;11.062;2023-03-14T04:39:03;9.50;99.90
7388;DHT22;3735;50.136;11.062;2023-03-14T04:41:29;9.50;99.90
7388;DHT22;3735;50.136;11.062;2023-03-14T04:43:56;9.60;99.90
7388;DHT22;3735;50.136;11.062;2023-03-14T04:46:21;9.60;99.90
7388;DHT22;3735;50.136;11.062;2023-03-14T04:48:47;9.70;99.90
7388;DHT22;3735;50.136;11.062;2023-03-14T04:51:13;9.80;99.90
7388;DHT22;3735;50.136;11.062;2023-03-14T04:53:39;9.80;99.90
7388;DHT22;3735;50.136;11.062;2023-03-14T04:56:05;9.80;99.90
7388;DHT22;3735;50.136;11.062;2023-03-14T04:58:31;9.70;99.90
7388;DHT22;3735;50.136;11.062;2023-03-14T05:01:03;9.60;99.90
7388;DHT22;3735;50.136;11.062;2023-03-14T05:03:29;9.60;99.90
7388;DHT22;3735;50.136;11.062;2023-03-14T05:05:55;9.60;99.90
7388;DHT22;3735;50.136;11.062;2023-03-14T05:08:22;9.60;99.90
7388;DHT22;3735;50.136;11.062;2023-03-14T05:10:56;9.70;99.90
7388;DHT22;3735;50.136;11.062;2023-03-14T05:13:22;9.60;99.90
7388;DHT22;3735;50.136;11.062;2023-03-14T05:15:49;9.60;99.90
7388;DHT22;3735;50.136;11.062;2023-03-14T05:18:16;9.60;99.90
7388;DHT22;3735;50.136;11.062;2023-03-14T05:20:42;9.60;99.90
7388;DHT22;3735;50.136;11.062;2023-03-14T05:23:11;9.70;99.90
7388;DHT22;3735;50.136;11.062;2023-03-14T05:25:37;9.70;99.90
7388;DHT22;3735;50.136;11.062;2023-03-14T05:28:02;9.70;99.90
7388;DHT22;3735;50.136;11.062;2023-03-14T05:30:29;9.60;99.90
7388;DHT22;3735;50.136;11.062;2023-03-14T05:32:56;9.70;99.90
7388;DHT22;3735;50.136;11.062;2023-03-14T05:35:22;9.70;99.90
7388;DHT22;3735;50.136;11.062;2023-03-14T05:37:47;9.60;99.90
7388;DHT22;3735;50.136;11.062;2023-03-14T05:40:13;9.60;99.90
7388;DHT22;3735;50.136;11.062;2023-03-14T05:42:39;9.60;99.90
7388;DHT22;3735;50.136;11.062;2023-03-14T05:45:05;9.60;99.90
7388;DHT22;3735;50.136;11.062;2023-03-14T05:47:32;9.50;99.90
7388;DHT22;3735;50.136;11.062;2023-03-14T05:49:57;9.50;99.90
7388;DHT22;3735;50.136;11.062;2023-03-14T05:52:23;9.50;99.90
7388;DHT22;3735;50.136;11.062;2023-03-14T05:54:49;9.40;99.90
7388;DHT22;3735;50.136;11.062;2023-03-14T05:57:14;9.40;99.90
7388;DHT22;3735;50.136;11.062;2023-03-14T05:59:40;9.40;99.90
7388;DHT22;3735;50.136;11.062;2023-03-14T06:02:06;9.40;99.90
7388;DHT22;3735;50.136;11.062;2023-03-14T06:04:32;9.40;99.90
7388;DHT22;3735;50.136;11.062;2023-03-14T06:06:57;9.40;99.90
7388;DHT22;3735;50.136;11.062;2023-03-14T06:09:23;9.50;99.90
7388;DHT22;3735;50.136;11.062;2023-03-14T06:11:49;9.50;99.90
7388;DHT22;3735;50.136;11.062;2023-03-14T06:14:15;9.50;99.90
7388;DHT22;3735;50.136;11.062;2023-03-14T06:16:42;9.50;99.90
7388;DHT22;3735;50.136;11.062;2023-03-14T06:19:07;9.50;99.90
7388;DHT22;3735;50.136;11.062;2023-03-14T06:21:33;9.50;99.90
7388;DHT22;3735;50.136;11.062;2023-03-14T06:23:59;9.50;99.90
7388;DHT22;3735;50.136;11.062;2023-03-14T06:26:25;9.50;99.90
7388;DHT22;3735;50.136;11.062;2023-03-14T06:28:50;9.50;99.90
7388;DHT22;3735;50.136;11.062;2023-03-14T06:31:17;9.50;99.90
7388;DHT22;3735;50.136;11.062;2023-03-14T06:33:42;9.50;99.90
7388;DHT22;3735;50.136;11.062;2023-03-14T06:36:08;9.60;99.90
7388;DHT22;3735;50.136;11.062;2023-03-14T06:38:34;9.60;99.90
7388;DHT22;3735;50.136;11.062;2023-03-14T06:41:07;9.60;99.90
7388;DHT22;3735;50.136;11.062;2023-03-14T06:43:33;9.70;99.90
7388;DHT22;3735;50.136;11.062;2023-03-14T06:45:59;9.70;99.90
7388;DHT22;3735;50.136;11.062;2023-03-14T06:48:25;9.80;99.90
7388;DHT22;3735;50.136;11.062;2023-03-14T06:50:51;9.90;99.90
7388;DHT22;3735;50.136;11.062;2023-03-14T06:53:16;10.00;99.90
7388;DHT22;3735;50.136;11.062;2023-03-14T06:55:42;10.00;99.90
7388;DHT22;3735;50.136;11.062;2023-03-14T06:58:08;10.10;99.90
7388;DHT22;3735;50.136;11.062;2023-03-14T07:00:35;10.10;99.90
7388;DHT22;3735;50.136;11.062;2023-03-14T07:03:01;10.10;99.90
7388;DHT22;3735;50.136;11.062;2023-03-14T07:05:27;10.20;99.90
7388;DHT22;3735;50.136;11.062;2023-03-14T07:07:53;10.30;99.90
7388;DHT22;3735;50.136;11.062;2023-03-14T07:10:19;10.30;99.90
7388;DHT22;3735;50.136;11.062;2023-03-14T07:12:45;10.30;99.90
7388;DHT22;3735;50.136;11.062;2023-03-14T07:15:11;10.40;99.90
7388;DHT22;3735;50.136;11.062;2023-03-14T07:17:37;10.50;99.90
7388;DHT22;3735;50.136;11.062;2023-03-14T07:20:03;10.60;99.90
7388;DHT22;3735;50.136;11.062;2023-03-14T07:22:30;10.60;99.90
7388;DHT22;3735;50.136;11.062;2023-03-14T07:24:56;10.60;99.90
7388;DHT22;3735;50.136;11.062;2023-03-14T07:27:22;10.50;99.90
7388;DHT22;3735;50.136;11.062;2023-03-14T07:29:47;10.40;99.90
7388;DHT22;3735;50.136;11.062;2023-03-14T07:32:13;10.40;99.90
7388;DHT22;3735;50.136;11.062;2023-03-14T07:34:41;10.40;99.90
7388;DHT22;3735;50.136;11.062;2023-03-14T07:37:07;10.40;99.90
7388;DHT22;3735;50.136;11.062;2023-03-14T07:39:34;10.30;99.90
7388;DHT22;3735;50.136;11.062;2023-03-14T07:42:00;10.40;99.90
7388;DHT22;3735;50.136;11.062;2023-03-14T07:44:26;10.50;99.90
7388;DHT22;3735;50.136;11.062;2023-03-14T07:46:52;10.50;99.90
7388;DHT22;3735;50.136;11.062;2023-03-14T07:49:18;10.50;99.90
7388;DHT22;3735;50.136;11.062;2023-03-14T07:51:47;10.40;99.90
7388;DHT22;3735;50.136;11.062;2023-03-14T07:54:14;10.40;99.90
7388;DHT22;3735;50.136;11.062;2023-03-14T07:56:40;10.50;99.90
7388;DHT22;3735;50.136;11.062;2023-03-14T07:59:06;10.70;99.90
7388;DHT22;3735;50.136;11.062;2023-03-14T08:01:32;10.70;99.90
7388;DHT22;3735;50.136;11.062;2023-03-14T08:03:58;10.90;99.90
7388;DHT22;3735;50.136;11.062;2023-03-14T08:06:24;11.40;99.90
7388;DHT22;3735;50.136;11.062;2023-03-14T08:08:50;11.70;99.90
7388;DHT22;3735;50.136;11.062;2023-03-14T08:11:16;11.60;99.90
7388;DHT22;3735;50.136;11.062;2023-03-14T08:13:42;11.70;99.90
7388;DHT22;3735;50.136;11.062;2023-03-14T08:16:08;11.60;99.90
7388;DHT22;3735;50.136;11.062;2023-03-14T08:18:34;11.70;99.90
7388;DHT22;3735;50.136;11.062;2023-03-14T08:20:59;11.60;99.90
7388;DHT22;3735;50.136;11.062;2023-03-14T08:23:25;11.60;99.90
7388;DHT22;3735;50.136;11.062;2023-03-14T08:25:51;11.60;99.90
7388;DHT22;3735;50.136;11.062;2023-03-14T08:28:18;11.80;99.90
7388;DHT22;3735;50.136;11.062;2023-03-14T08:30:44;12.10;99.90
7388;DHT22;3735;50.136;11.062;2023-03-14T08:33:10;12.20;99.90
7388;DHT22;3735;50.136;11.062;2023-03-14T08:35:37;12.30;99.90
7388;DHT22;3735;50.136;11.062;2023-03-14T08:38:03;12.20;99.90
7388;DHT22;3735;50.136;11.062;2023-03-14T08:40:29;12.00;99.90
7388;DHT22;3735;50.136;11.062;2023-03-14T08:42:55;11.70;99.90
7388;DHT22;3735;50.136;11.062;2023-03-14T08:45:20;11.60;99.90
7388;DHT22;3735;50.136;11.062;2023-03-14T08:47:47;11.40;99.90
7388;DHT22;3735;50.136;11.062;2023-03-14T08:50:13;11.50;99.90
7388;DHT22;3735;50.136;11.062;2023-03-14T08:52:39;11.50;99.90
7388;DHT22;3735;50.136;11.062;2023-03-14T08:55:09;11.50;99.90
7388;DHT22;3735;50.136;11.062;2023-03-14T08:57:35;11.50;99.90
7388;DHT22;3735;50.136;11.062;2023-03-14T09:00:03;11.30;99.90
7388;DHT22;3735;50.136;11.062;2023-03-14T09:02:38;11.30;99.90
7388;DHT22;3735;50.136;11.062;2023-03-14T09:05:04;11.30;99.90
7388;DHT22;3735;50.136;11.062;2023-03-14T09:07:30;11.20;99.90
7388;DHT22;3735;50.136;11.062;2023-03-14T09:09:56;10.80;99.90
7388;DHT22;3735;50.136;11.062;2023-03-14T09:12:22;10.70;99.90
7388;DHT22;3735;50.136;11.062;2023-03-14T09:14:48;10.80;99.90
7388;DHT22;3735;50.136;11.062;2023-03-14T09:17:13;10.90;99.90
7388;DHT22;3735;50.136;11.062;2023-03-14T09:19:39;11.00;99.90
7388;DHT22;3735;50.136;11.062;2023-03-14T09:22:05;11.10;99.90
7388;DHT22;3735;50.136;11.062;2023-03-14T09:24:30;11.00;99.90
7388;DHT22;3735;50.136;11.062;2023-03-14T09:26:56;11.00;99.90
7388;DHT22;3735;50.136;11.062;2023-03-14T09:29:22;10.90;99.90
7388;DHT22;3735;50.136;11.062;2023-03-14T09:31:48;10.80;99.90
7388;DHT22;3735;50.136;11.062;2023-03-14T09:34:14;10.60;99.90
7388;DHT22;3735;50.136;11.062;2023-03-14T09:36:40;10.40;99.90
7388;DHT22;3735;50.136;11.062;2023-03-14T09:39:06;10.30;99.90
7388;DHT22;3735;50.136;11.062;2023-03-14T09:41:37;10.20;99.90
7388;DHT22;3735;50.136;11.062;2023-03-14T09:44:24;10.00;99.90
7388;DHT22;3735;50.136;11.062;2023-03-14T09:46:54;10.00;99.90
7388;DHT22;3735;50.136;11.062;2023-03-14T09:49:34;9.90;99.90
7388;DHT22;3735;50.136;11.062;2023-03-14T09:52:12;9.90;99.90
7388;DHT22;3735;50.136;11.062;2023-03-14T09:54:51;9.80;99.90
7388;DHT22;3735;50.136;11.062;2023-03-14T09:57:21;9.70;99.90
7388;DHT22;3735;50.136;11.062;2023-03-14T09:59:50;9.70;99.90
7388;DHT22;3735;50.136;11.062;2023-03-14T10:02:33;9.70;99.90
7388;DHT22;3735;50.136;11.062;2023-03-14T10:05:00;9.70;99.90
7388;DHT22;3735;50.136;11.062;2023-03-14T10:07:31;9.80;99.90
7388;DHT22;3735;50.136;11.062;2023-03-14T10:09:58;9.80;99.90
7388;DHT22;3735;50.136;11.062;2023-03-14T10:12:35;9.80;99.90
7388;DHT22;3735;50.136;11.062;2023-03-14T10:15:11;9.90;99.90
7388;DHT22;3735;50.136;11.062;2023-03-14T10:17:44;9.90;99.90
7388;DHT22;3735;50.136;11.062;2023-03-14T10:22:59;9.90;99.90
7388;DHT22;3735;50.136;11.062;2023-03-14T10:25:34;9.90;99.90
7388;DHT22;3735;50.136;11.062;2023-03-14T10:28:03;10.00;99.90
7388;DHT22;3735;50.136;11.062;2023-03-14T10:33:24;10.20;99.90
7388;DHT22;3735;50.136;11.062;2023-03-14T10:41:48;10.70;99.90
7388;DHT22;3735;50.136;11.062;2023-03-14T10:44:22;10.90;99.90
7388;DHT22;3735;50.136;11.062;2023-03-14T10:47:00;11.10;99.90
7388;DHT22;3735;50.136;11.062;2023-03-14T10:49:31;11.30;99.90
7388;DHT22;3735;50.136;11.062;2023-03-14T10:52:21;11.50;99.90
7388;DHT22;3735;50.136;11.062;2023-03-14T10:54:57;11.60;99.90
7388;DHT22;3735;50.136;11.062;2023-03-14T10:57:25;11.80;99.90
7388;DHT22;3735;50.136;11.062;2023-03-14T10:59:52;11.90;99.90
7388;DHT22;3735;50.136;11.062;2023-03-14T11:11:05;12.30;99.90
7388;DHT22;3735;50.136;11.062;2023-03-14T11:20:01;13.00;99.90
7388;DHT22;3735;50.136;11.062;2023-03-14T11:22:58;13.10;99.90
7388;DHT22;3735;50.136;11.062;2023-03-14T11:25:32;13.20;99.90
7388;DHT22;3735;50.136;11.062;2023-03-14T11:28:18;13.20;99.90
7388;DHT22;3735;50.136;11.062;2023-03-14T11:30:55;13.10;99.90
7388;DHT22;3735;50.136;11.062;2023-03-14T11:33:43;13.30;99.90
7388;DHT22;3735;50.136;11.062;2023-03-14T11:36:21;13.30;99.90
7388;DHT22;3735;50.136;11.062;2023-03-14T11:39:17;12.90;99.90
7388;DHT22;3735;50.136;11.062;2023-03-14T11:41:52;12.70;99.90
7388;DHT22;3735;50.136;11.062;2023-03-14T11:44:23;12.60;99.90
7388;DHT22;3735;50.136;11.062;2023-03-14T11:47:10;13.00;99.90
7388;DHT22;3735;50.136;11.062;2023-03-14T11:49:53;13.70;99.90
7388;DHT22;3735;50.136;11.062;2023-03-14T11:52:42;13.90;99.90
7388;DHT22;3735;50.136;11.062;2023-03-14T11:55:27;15.80;99.90
7388;DHT22;3735;50.136;11.062;2023-03-14T11:58:01;16.90;99.90
7388;DHT22;3735;50.136;11.062;2023-03-14T12:00:35;16.30;99.90
7388;DHT22;3735;50.136;11.062;2023-03-14T12:03:26;16.10;99.90
7388;DHT22;3735;50.136;11.062;2023-03-14T12:06:28;16.60;99.90
7388;DHT22;3735;50.136;11.062;2023-03-14T12:09:06;16.50;99.90
7388;DHT22;3735;50.136;11.062;2023-03-14T12:11:57;16.20;99.90
7388;DHT22;3735;50.136;11.062;2023-03-14T12:14:29;15.50;99.90
7388;DHT22;3735;50.136;11.062;2023-03-14T12:17:18;14.80;99.90
7388;DHT22;3735;50.136;11.062;2023-03-14T12:20:15;14.40;99.90
7388;DHT22;3735;50.136;11.062;2023-03-14T12:22:50;14.20;99.90
7388;DHT22;3735;50.136;11.062;2023-03-14T12:25:24;14.80;99.90
7388;DHT22;3735;50.136;11.062;2023-03-14T12:35:50;14.10;99.90
7388;DHT22;3735;50.136;11.062;2023-03-14T12:47:00;13.30;99.90
7388;DHT22;3735;50.136;11.062;2023-03-14T12:49:43;12.70;99.90
7388;DHT22;3735;50.136;11.062;2023-03-14T12:52:41;12.30;99.90
7388;DHT22;3735;50.136;11.062;2023-03-14T12:55:10;12.10;99.90
7388;DHT22;3735;50.136;11.062;2023-03-14T13:00:39;11.80;99.90
7388;DHT22;3735;50.136;11.062;2023-03-14T13:06:01;11.50;99.90
7388;DHT22;3735;50.136;11.062;2023-03-14T13:08:43;11.50;99.90
7388;DHT22;3735;50.136;11.062;2023-03-14T13:11:19;11.30;99.90
7388;DHT22;3735;50.136;11.062;2023-03-14T13:13:48;11.00;99.90
7388;DHT22;3735;50.136;11.062;2023-03-14T13:16:19;10.70;99.90
7388;DHT22;3735;50.136;11.062;2023-03-14T13:18:48;10.40;99.90
7388;DHT22;3735;50.136;11.062;2023-03-14T13:21:27;10.20;99.90
7388;DHT22;3735;50.136;11.062;2023-03-14T13:24:07;10.10;99.90
7388;DHT22;3735;50.136;11.062;2023-03-14T13:26:46;10.00;99.90
7388;DHT22;3735;50.136;11.062;2023-03-14T13:29:30;10.00;99.90
7388;DHT22;3735;50.136;11.062;2023-03-14T13:31:59;10.10;99.90
7388;DHT22;3735;50.136;11.062;2023-03-14T13:34:29;10.10;99.90
7388;DHT22;3735;50.136;11.062;2023-03-14T13:36:56;10.10;99.90
7388;DHT22;3735;50.136;11.062;2023-03-14T13:39:24;10.00;99.90
7388;DHT22;3735;50.136;11.062;2023-03-14T13:41:58;9.90;99.90
7388;DHT22;3735;50.136;11.062;2023-03-14T13:44:34;9.90;99.90
7388;DHT22;3735;50.136;11.062;2023-03-14T13:47:04;9.90;99.90
7388;DHT22;3735;50.136;11.062;2023-03-14T13:49:36;9.80;99.90
7388;DHT22;3735;50.136;11.062;2023-03-14T13:52:04;9.70;99.90
7388;DHT22;3735;50.136;11.062;2023-03-14T13:54:56;9.60;99.90
7388;DHT22;3735;50.136;11.062;2023-03-14T13:57:24;9.40;99.90
7388;DHT22;3735;50.136;11.062;2023-03-14T14:00:16;9.40;99.90
7388;DHT22;3735;50.136;11.062;2023-03-14T14:02:57;9.30;99.90
7388;DHT22;3735;50.136;11.062;2023-03-14T14:05:27;9.30;99.90
7388;DHT22;3735;50.136;11.062;2023-03-14T14:07:55;9.20;99.90
7388;DHT22;3735;50.136;11.062;2023-03-14T14:10:22;9.20;99.90
7388;DHT22;3735;50.136;11.062;2023-03-14T14:13:14;9.10;99.90
7388;DHT22;3735;50.136;11.062;2023-03-14T14:15:46;9.10;99.90
7388;DHT22;3735;50.136;11.062;2023-03-14T14:18:17;9.10;99.90
7388;DHT22;3735;50.136;11.062;2023-03-14T14:20:47;9.00;99.90
7388;DHT22;3735;50.136;11.062;2023-03-14T14:23:36;9.00;99.90
7388;DHT22;3735;50.136;11.062;2023-03-14T14:26:04;9.00;99.90
7388;DHT22;3735;50.136;11.062;2023-03-14T14:28:34;9.10;99.90
7388;DHT22;3735;50.136;11.062;2023-03-14T14:31:22;9.00;99.90
7388;DHT22;3735;50.136;11.062;2023-03-14T14:33:57;9.10;99.90
7388;DHT22;3735;50.136;11.062;2023-03-14T14:39:19;9.00;99.90
7388;DHT22;3735;50.136;11.062;2023-03-14T14:41:48;9.10;99.90
7388;DHT22;3735;50.136;11.062;2023-03-14T14:44:36;9.00;99.90
7388;DHT22;3735;50.136;11.062;2023-03-14T14:47:03;8.90;99.90
7388;DHT22;3735;50.136;11.062;2023-03-14T14:49:31;8.70;99.90
7388;DHT22;3735;50.136;11.062;2023-03-14T14:52:09;8.60;99.90
7388;DHT22;3735;50.136;11.062;2023-03-14T14:54:43;8.50;99.90
7388;DHT22;3735;50.136;11.062;2023-03-14T14:57:30;8.40;99.90
7388;DHT22;3735;50.136;11.062;2023-03-14T15:00:08;8.30;99.90
7388;DHT22;3735;50.136;11.062;2023-03-14T15:02:46;8.10;99.90
7388;DHT22;3735;50.136;11.062;2023-03-14T15:05:14;7.90;99.90
7388;DHT22;3735;50.136;11.062;2023-03-14T15:07:42;7.80;99.90
7388;DHT22;3735;50.136;11.062;2023-03-14T15:10:26;7.70;99.90
7388;DHT22;3735;50.136;11.062;2023-03-14T15:12:52;7.70;99.90
7388;DHT22;3735;50.136;11.062;2023-03-14T15:15:18;7.60;99.90
7388;DHT22;3735;50.136;11.062;2023-03-14T15:17:44;7.70;99.90
7388;DHT22;3735;50.136;11.062;2023-03-14T15:20:14;7.70;99.90
7388;DHT22;3735;50.136;11.062;2023-03-14T15:22:42;7.90;99.90
7388;DHT22;3735;50.136;11.062;2023-03-14T15:25:09;8.00;99.90
7388;DHT22;3735;50.136;11.062;2023-03-14T15:27:36;8.00;99.90
7388;DHT22;3735;50.136;11.062;2023-03-14T15:30:11;8.20;99.90
7388;DHT22;3735;50.136;11.062;2023-03-14T15:32:38;8.40;99.90
7388;DHT22;3735;50.136;11.062;2023-03-14T15:35:04;8.50;99.90
7388;DHT22;3735;50.136;11.062;2023-03-14T15:37:31;8.50;99.90
7388;DHT22;3735;50.136;11.062;2023-03-14T15:39:56;8.40;99.90
7388;DHT22;3735;50.136;11.062;2023-03-14T15:42:25;8.50;99.90
7388;DHT22;3735;50.136;11.062;2023-03-14T15:44:51;8.40;99.90
7388;DHT22;3735;50.136;11.062;2023-03-14T15:47:17;8.40;99.90
7388;DHT22;3735;50.136;11.062;2023-03-14T15:49:43;8.40;99.90
7388;DHT22;3735;50.136;11.062;2023-03-14T15:52:09;8.40;99.90
7388;DHT22;3735;50.136;11.062;2023-03-14T15:54:35;8.40;99.90
7388;DHT22;3735;50.136;11.062;2023-03-14T15:57:01;8.40;99.90
7388;DHT22;3735;50.136;11.062;2023-03-14T15:59:27;8.40;99.90
7388;DHT22;3735;50.136;11.062;2023-03-14T16:01:52;8.40;99.90
7388;DHT22;3735;50.136;11.062;2023-03-14T16:04:18;8.40;99.90
7388;DHT22;3735;50.136;11.062;2023-03-14T16:06:44;8.40;99.90
7388;DHT22;3735;50.136;11.062;2023-03-14T16:09:11;8.30;99.90
7388;DHT22;3735;50.136;11.062;2023-03-14T16:11:38;8.30;99.90
7388;DHT22;3735;50.136;11.062;2023-03-14T16:14:04;8.30;99.90
7388;DHT22;3735;50.136;11.062;2023-03-14T16:16:30;8.30;99.90
7388;DHT22;3735;50.136;11.062;2023-03-14T16:18:56;8.20;99.90
7388;DHT22;3735;50.136;11.062;2023-03-14T16:21:22;8.10;99.90
7388;DHT22;3735;50.136;11.062;2023-03-14T16:23:48;7.90;99.90
7388;DHT22;3735;50.136;11.062;2023-03-14T16:26:18;7.40;99.90
7388;DHT22;3735;50.136;11.062;2023-03-14T16:28:46;6.70;99.90
7388;DHT22;3735;50.136;11.062;2023-03-14T16:31:15;6.20;99.90
7388;DHT22;3735;50.136;11.062;2023-03-14T16:33:42;5.80;99.90
7388;DHT22;3735;50.136;11.062;2023-03-14T16:36:11;5.60;99.90
7388;DHT22;3735;50.136;11.062;2023-03-14T16:38:40;5.50;99.90
7388;DHT22;3735;50.136;11.062;2023-03-14T16:41:14;5.40;99.90
7388;DHT22;3735;50.136;11.062;2023-03-14T16:43:42;5.50;99.90
7388;DHT22;3735;50.136;11.062;2023-03-14T16:46:16;5.60;99.90
7388;DHT22;3735;50.136;11.062;2023-03-14T16:48:43;5.60;99.90
7388;DHT22;3735;50.136;11.062;2023-03-14T16:51:09;5.70;99.90
7388;DHT22;3735;50.136;11.062;2023-03-14T16:53:35;5.70;99.90
7388;DHT22;3735;50.136;11.062;2023-03-14T16:56:10;5.70;99.90
7388;DHT22;3735;50.136;11.062;2023-03-14T16:58:36;5.70;99.90
7388;DHT22;3735;50.136;11.062;2023-03-14T17:01:10;5.70;99.90
7388;DHT22;3735;50.136;11.062;2023-03-14T17:03:42;5.70;99.90
7388;DHT22;3735;50.136;11.062;2023-03-14T17:06:14;5.60;99.90
7388;DHT22;3735;50.136;11.062;2023-03-14T17:08:44;5.50;99.90
7388;DHT22;3735;50.136;11.062;2023-03-14T17:11:10;5.50;99.90